WetterOnline ( https://www.wetteronline.de )

Wetter aktuell Lüdenscheid

Aktuelles Wetter: Lüdenscheid (392m)

6-stündlich | Neueste Meldungen
Ortszeit Temperatur Wetter
Di, 28.06. 20:00 22.1° C fast wolkenlos
Di, 28.06. 14:00 20.9° C leicht bewölkt
Di, 28.06. 8:00 11.9° C Nebel
Di, 28.06. 2:00 10.0° C Nebel
Mo, 27.06. 20:00 13.8° C wolkig
Mo, 27.06. 14:00 16.2° C bedeckt
Mo, 27.06. 8:00 14.7° C bedeckt
Mo, 27.06. 2:00 14.0° C leichter Regen
Ortszeit Temperatur Wetter
Di, 28.06. 23:00 17.5° C wolkig
Di, 28.06. 22:50 17.5° C wolkig
Di, 28.06. 22:40 17.1° C bedeckt
Di, 28.06. 22:30 18.0° C bewölkt
Di, 28.06. 22:20 18.0° C bewölkt
Di, 28.06. 22:10 18.1° C bewölkt
Di, 28.06. 22:00 19.1° C bewölkt
Di, 28.06. 21:30 20.0° C wolkig
Di, 28.06. 21:00 20.8° C wolkig
Di, 28.06. 20:30 21.2° C wolkig
Di, 28.06. 20:00 22.1° C fast wolkenlos
Ortszeit Relative Feuchte Sichtweite
Di, 28.06. 20:00 39% >70 km
Di, 28.06. 14:00 41% >70 km
Di, 28.06. 8:00 90% 7 km
Di, 28.06. 2:00 96% 0.4 km
Mo, 27.06. 20:00 85% >70 km
Mo, 27.06. 14:00 90% 7 km
Mo, 27.06. 8:00 94% 2.0 km
Mo, 27.06. 2:00 95% 7 km
Ortszeit Relative Feuchte Sichtweite
Di, 28.06. 23:00 60% 55 km
Di, 28.06. 22:50 60% -
Di, 28.06. 22:40 61% -
Di, 28.06. 22:30 58% 60 km
Di, 28.06. 22:20 58% -
Di, 28.06. 22:10 56% -
Di, 28.06. 22:00 53% >70 km
Di, 28.06. 21:30 50% >70 km
Di, 28.06. 21:00 47% >70 km
Di, 28.06. 20:30 43% >70 km
Di, 28.06. 20:00 39% >70 km
Ortszeit Niederschlagsmenge Niederschlagsart
Di, 28.06. 20:00 0.0 l/m2 in 12 Std. -
Di, 28.06. 14:00 0.0 l/m2 in 6 Std. -
Di, 28.06. 8:00 0.1 l/m2 in 12 Std. -
Di, 28.06. 2:00 0.0 l/m2 in 6 Std. -
Mo, 27.06. 20:00 0.6 l/m2 in 12 Std. Regen
Mo, 27.06. 14:00 0.3 l/m2 in 6 Std. Regen
Mo, 27.06. 8:00 2 l/m2 in 12 Std. Regen
Mo, 27.06. 2:00 0.9 l/m2 in 6 Std. Regen
Ortszeit Niederschlagsmenge Niederschlagsart
Di, 28.06. 23:00 0.0 l/m2 in 1 Std. -
Di, 28.06. 22:50 keine Meldung -
Di, 28.06. 22:40 keine Meldung -
Di, 28.06. 22:30 0.0 l/m2 in 1 Std. -
Di, 28.06. 22:20 keine Meldung -
Di, 28.06. 22:10 keine Meldung -
Di, 28.06. 22:00 0.0 l/m2 in 1 Std. -
Di, 28.06. 21:30 0.0 l/m2 in 1 Std. -
Di, 28.06. 21:00 0.0 l/m2 in 1 Std. -
Di, 28.06. 20:30 0.0 l/m2 in 1 Std. -
Di, 28.06. 20:00 0.0 l/m2 in 1 Std. -
Ortszeit Stärke Spitze Richtung
km/h Bft. km/h Grad Sektor
Di, 28.06. 20:00 6 1 26 60° NO
Di, 28.06. 14:00 6 1 20 210° SW
Di, 28.06. 8:00 4 1 11 100° O
Di, 28.06. 2:00 7 2 20 270° W
Mo, 27.06. 20:00 7 2 54 260° W
Mo, 27.06. 14:00 9 2 20 270° W
Mo, 27.06. 8:00 4 1 14 360° N
Mo, 27.06. 2:00 4 1 11 80° O
Ortszeit Stärke Spitze Richtung
km/h Bft. km/h Grad Sektor
Di, 28.06. 23:00 4 1 7 60° NO
Di, 28.06. 22:50 4 1 - 60° NO
Di, 28.06. 22:40 4 1 - 80° O
Di, 28.06. 22:30 4 1 7 70° O
Di, 28.06. 22:20 4 1 - 70° O
Di, 28.06. 22:10 4 1 - 60° NO
Di, 28.06. 22:00 4 1 11 40° NO
Di, 28.06. 21:30 4 1 11 20° N
Di, 28.06. 21:00 4 1 18 50° NO
Di, 28.06. 20:30 9 2 19 60° NO
Di, 28.06. 20:00 6 1 11 60° NO
Ortszeit Untergrenze Bedeckung Gattung
total tief tief mittel hoch
Di, 28.06. 20:00 1800 m 1/8 1/8 - - -
Di, 28.06. 14:00 1500 m 4/8 2/8 - - -
Di, 28.06. 8:00 - 0/8 0/8 - - -
Di, 28.06. 2:00 <30 m 1/8 0/8 - - -
Mo, 27.06. 20:00 3000 m 7/8 5/8 - - -
Mo, 27.06. 14:00 210 m 8/8 8/8 - - -
Mo, 27.06. 8:00 60 m 8/8 8/8 - - -
Mo, 27.06. 2:00 30 m 7/8 7/8 - - -
Ortszeit Bedeckungsgrad in Achtel und Wolkenuntergrenze
Di, 28.06. 23:00 1(1800m) 7(8100m) 8(8700m)
Di, 28.06. 22:50 1(1800m) 7(8100m) 8(8700m)
Di, 28.06. 22:40 8
Di, 28.06. 22:30 4(1800m) 8(8700m)
Di, 28.06. 22:20 4(1800m) 8(8700m)
Di, 28.06. 22:10 7
Di, 28.06. 22:00 7(1800m) 7(9000m)
Di, 28.06. 21:30 5(1800m) 7(9000m)
Di, 28.06. 21:00 3(1800m) 8(9000m)
Di, 28.06. 20:30 3(1800m) 7(9000m)
Di, 28.06. 20:00 1(1800m)
Ortszeit Luftdruck NN (hPa) Tendenz (hPa in 3 Std.)
Di, 28.06. 20:00 1018 - 1,1
Di, 28.06. 14:00 1020 - 1,2
Di, 28.06. 8:00 1023 + 0,5
Di, 28.06. 2:00 1022 + 0,6
Mo, 27.06. 20:00 1019 + 1,4
Mo, 27.06. 14:00 1017 + 1,2
Mo, 27.06. 8:00 1014 + 0,2
Mo, 27.06. 2:00 1016 - 0,5
Ortszeit Luftdruck NN (hPa) Tendenz (hPa in 3 Std.)
Di, 28.06. 23:00 1018 + 0,1
Di, 28.06. 22:50 1018 keine Meldung
Di, 28.06. 22:40 1018 keine Meldung
Di, 28.06. 22:30 1018 0,0
Di, 28.06. 22:20 1018 keine Meldung
Di, 28.06. 22:10 1018 keine Meldung
Di, 28.06. 22:00 1018 - 0,3
Di, 28.06. 21:30 1018 - 0,6
Di, 28.06. 21:00 1017 - 0,9
Di, 28.06. 20:30 1018 - 1,0
Di, 28.06. 20:00 1018 - 1,1
Ortszeit Schneehöhe (cm)
Di, 28.06. 20:00 0
Di, 28.06. 14:00 0
Di, 28.06. 8:00 0
Di, 28.06. 2:00 0
Mo, 27.06. 20:00 0
Mo, 27.06. 14:00 0
Mo, 27.06. 8:00 0
Mo, 27.06. 2:00 0
Ortszeit Schneehöhe (cm)
Di, 28.06. 23:00 0
Di, 28.06. 22:50 0
Di, 28.06. 22:40 0
Di, 28.06. 22:30 0
Di, 28.06. 22:20 0
Di, 28.06. 22:10 0
Di, 28.06. 22:00 0
Di, 28.06. 21:30 0
Di, 28.06. 21:00 0
Di, 28.06. 20:30 0
Di, 28.06. 20:00 0
Link zu dieser Seite / Seite empfehlen

Das Wetter in ...